Time,TemperatureF,DewpointF,PressureIn,WindDirection,WindDirectionDegrees,WindSpeedMPH,WindSpeedGustMPH,Humidity,HourlyPrecipIn,Conditions,Clouds,dailyrainin,SoftwareType,DateUTC
2013-05-04 00:01:00,42.9,41.0,29.81,SSW,197,0.0,4.0,93,0.11,,---,0.69,VWS V14.01,2013-05-04 05:01:00,
2013-05-04 00:06:00,42.9,41.0,29.81,SE,138,0.0,4.0,93,0.09,,---,0.00,VWS V14.01,2013-05-04 05:06:00,
2013-05-04 00:11:00,42.8,40.9,29.81,SSE,149,0.0,4.0,93,0.10,,---,0.01,VWS V14.01,2013-05-04 05:11:00,
2013-05-04 00:16:00,42.8,40.9,29.80,SSE,166,0.0,4.0,93,0.11,,---,0.02,VWS V14.01,2013-05-04 05:16:00,
2013-05-04 00:21:00,42.8,40.9,29.80,South,181,0.0,6.0,93,0.12,,---,0.03,VWS V14.01,2013-05-04 05:21:00,
2013-05-04 00:26:00,42.7,40.8,29.80,SW,236,1.0,6.0,93,0.12,,---,0.03,VWS V14.01,2013-05-04 05:26:00,
2013-05-04 00:31:00,42.5,40.6,29.80,SSW,193,1.0,6.0,93,0.12,,---,0.03,VWS V14.01,2013-05-04 05:31:00,
2013-05-04 00:36:00,42.4,40.5,29.80,SW,218,0.0,5.0,93,0.08,,---,0.04,VWS V14.01,2013-05-04 05:36:00,
2013-05-04 00:41:00,42.4,40.5,29.80,SW,214,0.0,5.0,93,0.08,,---,0.04,VWS V14.01,2013-05-04 05:41:00,
2013-05-04 00:46:00,42.3,40.4,29.80,WNW,301,0.0,7.0,93,0.08,,---,0.04,VWS V14.01,2013-05-04 05:46:00,
2013-05-04 00:51:00,42.4,40.5,29.80,SSE,153,4.0,7.0,93,0.08,,---,0.04,VWS V14.01,2013-05-04 05:51:00,
2013-05-04 00:56:00,42.3,40.4,29.80,SSE,158,0.0,7.0,93,0.08,,---,0.04,VWS V14.01,2013-05-04 05:56:00,
2013-05-04 01:01:00,42.4,40.5,29.81,SSE,157,0.0,7.0,93,0.09,,---,0.05,VWS V14.01,2013-05-04 06:01:00,
2013-05-04 01:06:00,42.4,40.5,29.81,West,271,0.0,2.0,93,0.05,,---,0.05,VWS V14.01,2013-05-04 06:06:00,
2013-05-04 01:11:00,42.4,40.5,29.81,West,271,0.0,2.0,93,0.05,,---,0.05,VWS V14.01,2013-05-04 06:11:00,
2013-05-04 01:16:00,42.4,40.5,29.79,SSW,194,0.0,2.0,93,0.06,,---,0.06,VWS V14.01,2013-05-04 06:16:00,
2013-05-04 01:21:00,42.4,40.5,29.79,SSW,194,0.0,2.0,93,0.07,,---,0.07,VWS V14.01,2013-05-04 06:21:00,
2013-05-04 01:26:00,42.4,40.5,29.79,SSW,194,0.0,2.0,93,0.07,,---,0.07,VWS V14.01,2013-05-04 06:26:00,
2013-05-04 01:31:00,42.4,40.5,29.78,SSW,194,0.0,2.0,93,0.08,,---,0.08,VWS V14.01,2013-05-04 06:31:00,
2013-05-04 01:36:00,42.4,40.5,29.78,SSW,194,2.0,2.0,93,0.05,,---,0.08,VWS V14.01,2013-05-04 06:36:00,
2013-05-04 01:41:00,42.5,40.9,29.78,West,270,0.0,2.0,94,0.06,,---,0.09,VWS V14.01,2013-05-04 06:41:00,
2013-05-04 01:46:00,42.5,40.6,29.78,West,260,1.0,2.0,93,0.06,,---,0.09,VWS V14.01,2013-05-04 06:46:00,
2013-05-04 01:51:00,42.4,40.5,29.78,West,273,0.0,2.0,93,0.06,,---,0.09,VWS V14.01,2013-05-04 06:51:00,
2013-05-04 01:56:00,42.5,40.6,29.78,West,273,0.0,2.0,93,0.07,,---,0.10,VWS V14.01,2013-05-04 06:56:00,
2013-05-04 02:01:00,42.5,40.9,29.76,West,273,0.0,2.0,94,0.08,,---,0.11,VWS V14.01,2013-05-04 07:01:00,
2013-05-04 02:06:00,42.5,40.9,29.76,West,273,0.0,1.0,94,0.06,,---,0.11,VWS V14.01,2013-05-04 07:06:00,
2013-05-04 02:11:00,42.5,40.9,29.76,West,273,0.0,1.0,94,0.07,,---,0.12,VWS V14.01,2013-05-04 07:11:00,
2013-05-04 02:16:00,42.6,41.0,29.77,West,273,0.0,1.0,94,0.07,,---,0.12,VWS V14.01,2013-05-04 07:16:00,
2013-05-04 02:21:00,42.6,41.0,29.77,West,273,0.0,1.0,94,0.07,,---,0.12,VWS V14.01,2013-05-04 07:21:00,
2013-05-04 02:26:00,42.6,41.0,29.77,SSW,212,0.0,1.0,94,0.08,,---,0.13,VWS V14.01,2013-05-04 07:26:00,
2013-05-04 02:31:00,42.6,41.0,29.77,SSW,212,0.0,1.0,94,0.09,,---,0.14,VWS V14.01,2013-05-04 07:31:00,
2013-05-04 02:36:00,42.7,41.1,29.77,SSW,212,0.0,0.0,94,0.07,,---,0.15,VWS V14.01,2013-05-04 07:36:00,
2013-05-04 02:41:00,42.7,41.1,29.77,SSW,212,0.0,0.0,94,0.08,,---,0.16,VWS V14.01,2013-05-04 07:41:00,
2013-05-04 02:46:00,42.7,41.1,29.75,SSW,212,0.0,1.0,94,0.08,,---,0.16,VWS V14.01,2013-05-04 07:46:00,
2013-05-04 02:51:00,42.7,41.1,29.75,SSW,212,0.0,1.0,94,0.08,,---,0.16,VWS V14.01,2013-05-04 07:51:00,
2013-05-04 02:56:00,42.8,41.2,29.75,SSW,212,1.0,1.0,94,0.09,,---,0.17,VWS V14.01,2013-05-04 07:56:00,
2013-05-04 03:01:00,42.8,41.2,29.73,WNW,300,3.0,4.0,94,0.10,,---,0.18,VWS V14.01,2013-05-04 08:01:00,
2013-05-04 03:06:00,42.8,41.2,29.73,WNW,300,0.0,4.0,94,0.09,,---,0.20,VWS V14.01,2013-05-04 08:06:00,
2013-05-04 03:11:00,42.8,41.2,29.73,WSW,240,0.0,4.0,94,0.11,,---,0.22,VWS V14.01,2013-05-04 08:11:00,
2013-05-04 03:16:00,42.8,41.2,29.77,WSW,240,0.0,4.0,94,0.13,,---,0.24,VWS V14.01,2013-05-04 08:16:00,
2013-05-04 03:21:00,42.7,41.1,29.77,SSW,207,0.0,4.0,94,0.15,,---,0.26,VWS V14.01,2013-05-04 08:21:00,
2013-05-04 03:26:00,42.6,41.0,29.77,SSW,207,0.0,4.0,94,0.16,,---,0.27,VWS V14.01,2013-05-04 08:26:00,
2013-05-04 03:31:00,42.7,41.1,29.75,SSW,207,0.0,4.0,94,0.17,,---,0.28,VWS V14.01,2013-05-04 08:31:00,
2013-05-04 03:36:00,42.7,41.1,29.75,SSE,150,0.0,5.0,94,0.16,,---,0.30,VWS V14.01,2013-05-04 08:36:00,
2013-05-04 03:41:00,42.7,41.1,29.75,WNW,292,0.0,5.0,94,0.17,,---,0.31,VWS V14.01,2013-05-04 08:41:00,
2013-05-04 03:46:00,42.7,41.1,29.77,SSW,192,0.0,5.0,94,0.19,,---,0.33,VWS V14.01,2013-05-04 08:46:00,
2013-05-04 03:51:00,42.7,41.1,29.77,SSW,201,1.0,5.0,94,0.19,,---,0.33,VWS V14.01,2013-05-04 08:51:00,
2013-05-04 03:56:00,42.7,41.1,29.77,South,171,2.0,5.0,94,0.20,,---,0.34,VWS V14.01,2013-05-04 08:56:00,
2013-05-04 04:01:00,42.6,41.0,29.77,SSE,161,0.0,5.0,94,0.21,,---,0.35,VWS V14.01,2013-05-04 09:01:00,
2013-05-04 04:06:00,42.7,41.1,29.77,West,279,0.0,2.0,94,0.16,,---,0.35,VWS V14.01,2013-05-04 09:06:00,
2013-05-04 04:11:00,42.6,41.0,29.77,SSW,213,0.0,2.0,94,0.16,,---,0.35,VWS V14.01,2013-05-04 09:11:00,
2013-05-04 04:16:00,42.4,40.8,29.77,SSE,153,0.0,5.0,94,0.16,,---,0.35,VWS V14.01,2013-05-04 09:16:00,
2013-05-04 04:21:00,42.3,40.7,29.77,South,181,0.0,5.0,94,0.17,,---,0.36,VWS V14.01,2013-05-04 09:21:00,
2013-05-04 04:26:00,42.3,40.7,29.77,South,181,0.0,5.0,94,0.18,,---,0.37,VWS V14.01,2013-05-04 09:26:00,
2013-05-04 04:31:00,42.2,40.6,29.76,South,181,0.0,5.0,94,0.19,,---,0.38,VWS V14.01,2013-05-04 09:31:00,
2013-05-04 04:36:00,42.2,40.6,29.76,South,181,0.0,0.0,94,0.09,,---,0.38,VWS V14.01,2013-05-04 09:36:00,
2013-05-04 04:41:00,42.3,40.7,29.76,South,169,0.0,2.0,94,0.09,,---,0.38,VWS V14.01,2013-05-04 09:41:00,
2013-05-04 04:46:00,42.3,40.7,29.77,South,171,0.0,2.0,94,0.09,,---,0.38,VWS V14.01,2013-05-04 09:46:00,
2013-05-04 04:51:00,42.3,40.7,29.77,South,171,0.0,2.0,94,0.10,,---,0.39,VWS V14.01,2013-05-04 09:51:00,
2013-05-04 04:56:00,42.3,40.7,29.77,West,259,1.0,2.0,94,0.12,,---,0.41,VWS V14.01,2013-05-04 09:56:00,
2013-05-04 05:01:00,42.3,40.7,29.74,West,259,0.0,2.0,94,0.13,,---,0.42,VWS V14.01,2013-05-04 10:01:00,
2013-05-04 05:06:00,42.3,40.7,29.74,West,259,0.0,0.0,94,0.07,,---,0.42,VWS V14.01,2013-05-04 10:06:00,
2013-05-04 05:11:00,42.4,40.8,29.74,SSW,205,0.0,2.0,94,0.09,,---,0.44,VWS V14.01,2013-05-04 10:11:00,
2013-05-04 05:16:00,42.4,40.8,29.77,SSW,205,0.0,2.0,94,0.10,,---,0.45,VWS V14.01,2013-05-04 10:16:00,
2013-05-04 05:21:00,42.4,40.8,29.77,SSW,205,0.0,2.0,94,0.11,,---,0.46,VWS V14.01,2013-05-04 10:21:00,
2013-05-04 05:26:00,42.3,40.7,29.77,SSW,205,0.0,2.0,94,0.13,,---,0.48,VWS V14.01,2013-05-04 10:26:00,
2013-05-04 05:31:00,42.2,40.6,29.76,SSW,205,0.0,2.0,94,0.15,,---,0.50,VWS V14.01,2013-05-04 10:31:00,
2013-05-04 05:36:00,42.2,40.6,29.76,SSW,205,0.0,0.0,94,0.14,,---,0.52,VWS V14.01,2013-05-04 10:36:00,
2013-05-04 05:41:00,42.2,40.6,29.76,SSW,205,0.0,1.0,94,0.16,,---,0.54,VWS V14.01,2013-05-04 10:41:00,
2013-05-04 05:46:00,42.2,40.6,29.78,South,177,0.0,3.0,94,0.18,,---,0.56,VWS V14.01,2013-05-04 10:46:00,
2013-05-04 05:51:00,42.2,40.6,29.78,SSE,163,0.0,3.0,94,0.21,,---,0.59,VWS V14.01,2013-05-04 10:51:00,
2013-05-04 05:56:00,42.2,40.6,29.78,SSE,153,0.0,3.0,94,0.24,,---,0.62,VWS V14.01,2013-05-04 10:56:00,
2013-05-04 06:01:00,42.2,40.6,29.80,SSE,153,1.0,3.0,94,0.27,,---,0.65,VWS V14.01,2013-05-04 11:01:00,
2013-05-04 06:06:00,42.2,40.6,29.80,SSE,155,0.0,2.0,94,0.25,,---,0.67,VWS V14.01,2013-05-04 11:06:00,
2013-05-04 06:11:00,42.2,40.6,29.80,SSE,155,0.0,2.0,94,0.26,,---,0.68,VWS V14.01,2013-05-04 11:11:00,
2013-05-04 06:16:00,42.1,40.5,29.78,SSE,155,0.0,2.0,94,0.28,,---,0.70,VWS V14.01,2013-05-04 11:16:00,
2013-05-04 06:21:00,42.0,40.4,29.78,SSE,154,0.0,2.0,94,0.28,,---,0.70,VWS V14.01,2013-05-04 11:21:00,
2013-05-04 06:26:00,42.1,40.5,29.78,SSE,153,0.0,2.0,94,0.29,,---,0.71,VWS V14.01,2013-05-04 11:26:00,
2013-05-04 06:31:00,42.0,40.4,29.80,SSE,151,0.0,2.0,94,0.30,,---,0.72,VWS V14.01,2013-05-04 11:31:00,
2013-05-04 06:36:00,42.0,40.4,29.80,SE,143,0.0,1.0,94,0.23,,---,0.73,VWS V14.01,2013-05-04 11:36:00,
2013-05-04 06:41:00,41.9,40.3,29.80,West,281,0.0,2.0,94,0.23,,---,0.73,VWS V14.01,2013-05-04 11:41:00,
2013-05-04 06:46:00,41.9,40.3,29.80,West,271,0.0,2.0,94,0.23,,---,0.73,VWS V14.01,2013-05-04 11:46:00,
2013-05-04 06:51:00,41.7,40.1,29.80,SE,139,0.0,5.0,94,0.23,,---,0.73,VWS V14.01,2013-05-04 11:51:00,
2013-05-04 06:56:00,41.6,40.0,29.80,NW,313,2.0,5.0,94,0.23,,---,0.73,VWS V14.01,2013-05-04 11:56:00,
2013-05-04 07:01:00,41.5,39.9,29.80,South,191,0.0,5.0,94,0.23,,---,0.73,VWS V14.01,2013-05-04 12:01:00,
2013-05-04 07:06:00,41.5,39.9,29.80,South,174,0.0,3.0,94,0.08,,---,0.73,VWS V14.01,2013-05-04 12:06:00,
2013-05-04 07:11:00,41.5,39.9,29.80,WNW,298,0.0,3.0,94,0.08,,---,0.73,VWS V14.01,2013-05-04 12:11:00,
2013-05-04 07:16:00,41.4,39.8,29.81,WSW,248,0.0,3.0,94,0.08,,---,0.73,VWS V14.01,2013-05-04 12:16:00,
2013-05-04 07:21:00,41.3,39.7,29.81,WSW,252,0.0,3.0,94,0.08,,---,0.73,VWS V14.01,2013-05-04 12:21:00,
2013-05-04 07:27:00,41.3,39.7,29.81,WSW,238,0.0,3.0,94,0.08,,---,0.73,VWS V14.01,2013-05-04 12:27:00,
2013-05-04 07:32:00,41.3,39.7,29.82,WSW,238,0.0,3.0,94,0.08,,---,0.73,VWS V14.01,2013-05-04 12:32:00,
2013-05-04 07:37:00,41.3,39.7,29.82,WSW,238,0.0,1.0,94,0.01,,---,0.73,VWS V14.01,2013-05-04 12:37:00,
2013-05-04 07:42:00,41.3,39.7,29.82,WSW,238,0.0,1.0,94,0.01,,---,0.73,VWS V14.01,2013-05-04 12:42:00,
2013-05-04 07:47:00,41.3,39.7,29.82,WSW,238,0.0,1.0,94,0.01,,---,0.73,VWS V14.01,2013-05-04 12:47:00,
2013-05-04 07:52:00,41.4,39.8,29.82,WSW,238,0.0,1.0,94,0.02,,---,0.74,VWS V14.01,2013-05-04 12:52:00,
2013-05-04 07:57:00,41.5,39.9,29.82,SSW,201,0.0,1.0,94,0.02,,---,0.74,VWS V14.01,2013-05-04 12:57:00,
2013-05-04 08:02:00,41.5,39.9,29.82,SSW,200,0.0,0.0,94,0.01,,---,0.74,VWS V14.01,2013-05-04 13:02:00,
2013-05-04 08:03:00,41.6,40.0,29.82,SSW,200,0.0,1.0,94,0.01,,---,0.74,VWS V14.01,2013-05-04 13:03:00,
2013-05-04 08:08:00,41.5,39.9,29.82,SSE,154,0.0,4.0,94,0.01,,---,0.74,VWS V14.01,2013-05-04 13:08:00,
2013-05-04 08:13:00,41.6,40.0,29.82,SSW,207,0.0,4.0,94,0.01,,---,0.74,VWS V14.01,2013-05-04 13:13:00,
2013-05-04 08:18:00,41.6,40.0,29.81,West,275,1.0,4.0,94,0.01,,---,0.74,VWS V14.01,2013-05-04 13:18:00,
2013-05-04 08:23:00,41.6,40.0,29.81,WNW,286,0.0,4.0,94,0.01,,---,0.74,VWS V14.01,2013-05-04 13:23:00,
2013-05-04 08:28:00,41.7,40.1,29.81,WNW,285,0.0,4.0,94,0.01,,---,0.74,VWS V14.01,2013-05-04 13:28:00,
2013-05-04 08:33:00,41.6,40.0,29.82,West,261,0.0,2.0,94,0.01,,---,0.74,VWS V14.01,2013-05-04 13:33:00,
2013-05-04 08:38:00,41.5,39.9,29.82,WNW,293,0.0,2.0,94,0.01,,---,0.74,VWS V14.01,2013-05-04 13:38:00,
2013-05-04 08:43:00,41.5,39.9,29.82,West,268,1.0,2.0,94,0.01,,---,0.74,VWS V14.01,2013-05-04 13:43:00,
2013-05-04 08:48:00,41.5,39.9,29.83,WNW,295,1.0,2.0,94,0.01,,---,0.74,VWS V14.01,2013-05-04 13:48:00,
2013-05-04 08:53:00,41.4,39.8,29.83,WNW,282,2.0,2.0,94,0.01,,---,0.74,VWS V14.01,2013-05-04 13:53:00,
2013-05-04 08:58:00,41.4,39.8,29.83,West,271,0.0,5.0,94,0.01,,---,0.74,VWS V14.01,2013-05-04 13:58:00,
2013-05-04 09:03:00,41.5,39.9,29.83,West,271,0.0,0.0,94,0.00,,---,0.74,VWS V14.01,2013-05-04 14:03:00,
2013-05-04 09:08:00,41.6,40.0,29.83,West,271,0.0,2.0,94,0.00,,---,0.74,VWS V14.01,2013-05-04 14:08:00,
2013-05-04 09:13:00,41.6,40.0,29.83,WNW,289,1.0,2.0,94,0.00,,---,0.74,VWS V14.01,2013-05-04 14:13:00,
2013-05-04 09:18:00,41.5,39.9,29.83,WSW,240,0.0,2.0,94,0.00,,---,0.74,VWS V14.01,2013-05-04 14:18:00,
2013-05-04 09:23:00,41.4,39.8,29.83,WSW,241,0.0,2.0,94,0.00,,---,0.74,VWS V14.01,2013-05-04 14:23:00,
2013-05-04 09:28:00,41.5,39.9,29.83,WSW,240,0.0,2.0,94,0.00,,---,0.74,VWS V14.01,2013-05-04 14:28:00,
2013-05-04 09:33:00,41.7,40.1,29.83,WSW,241,0.0,1.0,94,0.00,,---,0.74,VWS V14.01,2013-05-04 14:33:00,
2013-05-04 09:38:00,41.7,40.1,29.83,West,261,0.0,2.0,94,0.00,,---,0.74,VWS V14.01,2013-05-04 14:38:00,
2013-05-04 09:43:00,41.8,39.9,29.83,West,259,0.0,2.0,93,0.00,,---,0.74,VWS V14.01,2013-05-04 14:43:00,
2013-05-04 09:48:00,42.2,40.3,29.83,West,280,0.0,2.0,93,0.00,,---,0.74,VWS V14.01,2013-05-04 14:48:00,
2013-05-04 09:53:00,42.5,40.6,29.83,West,261,0.0,2.0,93,0.00,,---,0.74,VWS V14.01,2013-05-04 14:53:00,
2013-05-04 09:58:00,42.8,40.9,29.83,SW,228,0.0,2.0,93,0.00,,---,0.74,VWS V14.01,2013-05-04 14:58:00,
2013-05-04 10:03:00,42.9,40.7,29.84,West,269,0.0,0.0,92,0.00,,---,0.74,VWS V14.01,2013-05-04 15:03:00,
2013-05-04 10:08:00,43.1,40.9,29.84,West,263,0.0,1.0,92,0.00,,---,0.74,VWS V14.01,2013-05-04 15:08:00,
2013-05-04 10:13:00,43.3,41.1,29.84,WNW,288,0.0,3.0,92,0.00,,---,0.74,VWS V14.01,2013-05-04 15:13:00,
2013-05-04 10:18:00,43.6,41.2,29.84,WNW,282,2.0,4.0,91,0.00,,---,0.74,VWS V14.01,2013-05-04 15:18:00,
2013-05-04 10:23:00,43.7,41.0,29.84,SSE,165,1.0,4.0,90,0.00,,---,0.74,VWS V14.01,2013-05-04 15:23:00,
2013-05-04 10:28:00,44.0,41.0,29.84,SSE,167,0.0,4.0,89,0.00,,---,0.74,VWS V14.01,2013-05-04 15:28:00,
2013-05-04 10:33:00,44.3,41.3,29.85,SSE,161,3.0,3.0,89,0.00,,---,0.74,VWS V14.01,2013-05-04 15:33:00,
2013-05-04 10:38:00,44.3,41.0,29.85,SSE,147,0.0,4.0,88,0.00,,---,0.74,VWS V14.01,2013-05-04 15:38:00,
2013-05-04 10:43:00,44.6,41.3,29.85,SSE,159,0.0,4.0,88,0.00,,---,0.74,VWS V14.01,2013-05-04 15:43:00,
2013-05-04 10:48:00,45.4,42.3,29.85,SSE,159,0.0,4.0,89,0.00,,---,0.74,VWS V14.01,2013-05-04 15:48:00,
2013-05-04 10:53:00,45.8,42.2,29.85,South,182,0.0,4.0,87,0.00,,---,0.74,VWS V14.01,2013-05-04 15:53:00,
2013-05-04 10:58:00,45.7,41.2,29.85,SSW,207,0.0,4.0,84,0.00,,---,0.74,VWS V14.01,2013-05-04 15:58:00,
2013-05-04 11:03:00,45.7,40.2,29.85,WSW,238,0.0,2.0,81,0.00,,---,0.74,VWS V14.01,2013-05-04 16:03:00,
2013-05-04 11:08:00,46.6,41.7,29.85,SE,139,0.0,2.0,83,0.00,,---,0.74,VWS V14.01,2013-05-04 16:08:00,
2013-05-04 11:14:00,47.0,40.5,29.85,NW,304,0.0,5.0,78,0.00,,---,0.74,VWS V14.01,2013-05-04 16:14:00,
2013-05-04 11:19:00,47.3,40.8,29.84,WSW,237,0.0,5.0,78,0.00,,---,0.74,VWS V14.01,2013-05-04 16:19:00,
2013-05-04 11:24:00,47.1,39.9,29.84,SSW,211,0.0,5.0,76,0.00,,---,0.74,VWS V14.01,2013-05-04 16:24:00,
2013-05-04 11:29:00,47.3,40.5,29.84,West,278,0.0,5.0,77,0.00,,---,0.74,VWS V14.01,2013-05-04 16:29:00,
2013-05-04 11:34:00,47.9,40.7,29.84,West,263,0.0,1.0,76,0.00,,---,0.74,VWS V14.01,2013-05-04 16:34:00,
2013-05-04 11:39:00,48.1,40.2,29.84,West,259,0.0,6.0,74,0.00,,---,0.74,VWS V14.01,2013-05-04 16:39:00,
2013-05-04 11:44:00,48.2,40.3,29.84,SSW,199,2.0,6.0,74,0.00,,---,0.74,VWS V14.01,2013-05-04 16:44:00,
2013-05-04 11:49:00,48.5,40.2,29.84,SSE,165,1.0,6.0,73,0.00,,---,0.74,VWS V14.01,2013-05-04 16:49:00,
2013-05-04 11:54:00,48.7,40.8,29.84,South,175,0.0,7.0,74,0.00,,---,0.74,VWS V14.01,2013-05-04 16:54:00,
2013-05-04 11:59:00,49.0,39.7,29.84,SE,136,0.0,7.0,70,0.00,,---,0.74,VWS V14.01,2013-05-04 16:59:00,
2013-05-04 12:04:00,49.2,39.5,29.84,SW,225,0.0,2.0,69,0.00,,---,0.74,VWS V14.01,2013-05-04 17:04:00,
2013-05-04 12:09:00,49.5,40.1,29.84,ESE,104,1.0,6.0,70,0.00,,---,0.74,VWS V14.01,2013-05-04 17:09:00,
2013-05-04 12:14:00,50.1,41.1,29.84,SSW,204,0.0,6.0,71,0.00,,---,0.74,VWS V14.01,2013-05-04 17:14:00,
2013-05-04 12:19:00,50.5,40.3,29.84,SSE,165,0.0,6.0,68,0.00,,---,0.74,VWS V14.01,2013-05-04 17:19:00,
2013-05-04 12:24:00,50.2,40.1,29.84,SE,126,1.0,6.0,68,0.00,,---,0.74,VWS V14.01,2013-05-04 17:24:00,
2013-05-04 12:29:00,50.3,40.5,29.84,SW,217,1.0,6.0,69,0.00,,---,0.74,VWS V14.01,2013-05-04 17:29:00,
2013-05-04 12:34:00,50.1,40.3,29.84,WNW,299,2.0,3.0,69,0.00,,---,0.74,VWS V14.01,2013-05-04 17:34:00,
2013-05-04 12:39:00,49.9,40.2,29.84,SW,219,0.0,3.0,69,0.00,,---,0.74,VWS V14.01,2013-05-04 17:39:00,
2013-05-04 12:44:00,50.1,40.3,29.84,SSE,166,6.0,7.0,69,0.00,,---,0.74,VWS V14.01,2013-05-04 17:44:00,
2013-05-04 12:49:00,50.7,41.3,29.83,SE,130,5.0,9.0,70,0.00,,---,0.74,VWS V14.01,2013-05-04 17:49:00,
2013-05-04 12:54:00,50.8,41.0,29.83,South,171,0.0,9.0,69,0.00,,---,0.74,VWS V14.01,2013-05-04 17:54:00,
2013-05-04 12:59:00,51.2,41.4,29.83,SSE,147,1.0,9.0,69,0.00,,---,0.74,VWS V14.01,2013-05-04 17:59:00,
2013-05-04 13:04:00,51.4,41.2,29.83,WSW,254,0.0,2.0,68,0.00,,---,0.74,VWS V14.01,2013-05-04 18:04:00,
2013-05-04 13:09:00,51.8,40.8,29.83,WSW,238,0.0,3.0,66,0.00,,---,0.74,VWS V14.01,2013-05-04 18:09:00,
2013-05-04 13:14:00,52.4,41.4,29.83,SSE,147,8.0,8.0,66,0.00,,---,0.74,VWS V14.01,2013-05-04 18:14:00,
2013-05-04 13:19:00,52.6,40.4,29.83,WNW,301,0.0,11.0,63,0.00,,---,0.74,VWS V14.01,2013-05-04 18:19:00,
2013-05-04 13:24:00,52.8,40.2,29.83,NE,48,1.0,11.0,62,0.00,,---,0.74,VWS V14.01,2013-05-04 18:24:00,
2013-05-04 13:29:00,52.8,40.6,29.83,South,171,0.0,11.0,63,0.00,,---,0.74,VWS V14.01,2013-05-04 18:29:00,
2013-05-04 13:34:00,52.4,39.8,29.83,East,82,0.0,3.0,62,0.00,,---,0.74,VWS V14.01,2013-05-04 18:34:00,
2013-05-04 13:39:00,51.5,40.1,29.83,ENE,59,2.0,4.0,65,0.00,,---,0.74,VWS V14.01,2013-05-04 18:39:00,
2013-05-04 13:44:00,51.9,41.3,29.83,ESE,102,1.0,4.0,67,0.00,,---,0.74,VWS V14.01,2013-05-04 18:44:00,
2013-05-04 13:49:00,52.2,40.4,29.83,SSW,197,3.0,6.0,64,0.00,,---,0.74,VWS V14.01,2013-05-04 18:49:00,
2013-05-04 13:54:00,52.8,41.8,29.83,South,176,1.0,6.0,66,0.00,,---,0.74,VWS V14.01,2013-05-04 18:54:00,
2013-05-04 13:59:00,53.8,42.3,29.83,SW,233,0.0,6.0,65,0.00,,---,0.74,VWS V14.01,2013-05-04 18:59:00,
2013-05-04 14:04:00,54.0,42.1,29.82,East,98,0.0,2.0,64,0.00,,---,0.74,VWS V14.01,2013-05-04 19:04:00,
2013-05-04 14:09:00,53.6,41.7,29.82,East,86,0.0,4.0,64,0.00,,---,0.74,VWS V14.01,2013-05-04 19:09:00,
2013-05-04 14:14:00,53.1,40.4,29.82,ENE,74,0.0,4.0,62,0.00,,---,0.74,VWS V14.01,2013-05-04 19:14:00,
2013-05-04 14:19:00,52.4,41.0,29.82,East,81,0.0,4.0,65,0.00,,---,0.74,VWS V14.01,2013-05-04 19:19:00,
2013-05-04 14:24:00,52.6,40.4,29.82,SSE,162,0.0,4.0,63,0.00,,---,0.74,VWS V14.01,2013-05-04 19:24:00,
2013-05-04 14:29:00,53.1,41.3,29.82,SSE,157,0.0,4.0,64,0.00,,---,0.74,VWS V14.01,2013-05-04 19:29:00,
2013-05-04 14:34:00,53.3,41.8,29.82,SSE,157,0.0,0.0,65,0.00,,---,0.74,VWS V14.01,2013-05-04 19:34:00,
2013-05-04 14:39:00,53.5,42.0,29.82,SSE,162,1.0,5.0,65,0.00,,---,0.74,VWS V14.01,2013-05-04 19:39:00,
2013-05-04 14:44:00,53.4,41.1,29.82,South,169,0.0,5.0,63,0.00,,---,0.74,VWS V14.01,2013-05-04 19:44:00,
2013-05-04 14:49:00,53.5,40.8,29.83,South,182,1.0,5.0,62,0.00,,---,0.74,VWS V14.01,2013-05-04 19:49:00,
2013-05-04 14:54:00,53.8,41.9,29.83,SW,219,1.0,5.0,64,0.00,,---,0.74,VWS V14.01,2013-05-04 19:54:00,
2013-05-04 14:59:00,54.1,41.8,29.83,SW,224,0.0,5.0,63,0.00,,---,0.74,VWS V14.01,2013-05-04 19:59:00,
2013-05-04 15:04:00,54.6,41.9,29.82,SW,231,0.0,1.0,62,0.00,,---,0.74,VWS V14.01,2013-05-04 20:04:00,
2013-05-04 15:09:00,55.1,42.3,29.82,SSE,166,0.0,3.0,62,0.00,,---,0.74,VWS V14.01,2013-05-04 20:09:00,
2013-05-04 15:14:00,55.6,42.4,29.82,NNE,16,0.0,3.0,61,0.00,,---,0.74,VWS V14.01,2013-05-04 20:14:00,
2013-05-04 15:19:00,56.3,42.6,29.82,SW,233,0.0,6.0,60,0.00,,---,0.74,VWS V14.01,2013-05-04 20:19:00,
2013-05-04 15:24:00,55.7,41.6,29.82,NW,311,2.0,7.0,59,0.00,,---,0.74,VWS V14.01,2013-05-04 20:24:00,
2013-05-04 15:29:00,54.8,41.2,29.82,North,360,4.0,7.0,60,0.00,,---,0.74,VWS V14.01,2013-05-04 20:29:00,
2013-05-04 15:34:00,54.7,40.7,29.83,NNW,347,0.0,0.0,59,0.00,,---,0.74,VWS V14.01,2013-05-04 20:34:00,
2013-05-04 15:39:00,55.2,41.1,29.83,WSW,240,0.0,2.0,59,0.00,,---,0.74,VWS V14.01,2013-05-04 20:39:00,
2013-05-04 15:44:00,55.2,41.1,29.83,South,175,0.0,4.0,59,0.00,,---,0.74,VWS V14.01,2013-05-04 20:44:00,
2013-05-04 15:49:00,54.7,41.5,29.83,South,170,0.0,5.0,61,0.00,,---,0.74,VWS V14.01,2013-05-04 20:49:00,
2013-05-04 15:54:00,55.0,41.8,29.83,WSW,244,0.0,5.0,61,0.00,,---,0.74,VWS V14.01,2013-05-04 20:54:00,
2013-05-04 15:59:00,55.5,42.7,29.83,WSW,244,0.0,5.0,62,0.00,,---,0.74,VWS V14.01,2013-05-04 20:59:00,
2013-05-04 16:04:00,55.6,41.5,29.82,WNW,300,4.0,5.0,59,0.00,,---,0.74,VWS V14.01,2013-05-04 21:04:00,
2013-05-04 16:09:00,55.3,40.8,29.82,WNW,296,0.0,7.0,58,0.00,,---,0.74,VWS V14.01,2013-05-04 21:09:00,
2013-05-04 16:14:00,54.8,41.2,29.82,West,275,0.0,7.0,60,0.00,,---,0.74,VWS V14.01,2013-05-04 21:14:00,
2013-05-04 16:19:00,54.7,41.1,29.82,West,275,0.0,7.0,60,0.00,,---,0.74,VWS V14.01,2013-05-04 21:19:00,
2013-05-04 16:24:00,54.8,41.6,29.82,South,183,0.0,7.0,61,0.00,,---,0.74,VWS V14.01,2013-05-04 21:24:00,
2013-05-04 16:29:00,55.4,43.0,29.82,ESE,117,0.0,7.0,63,0.00,,---,0.74,VWS V14.01,2013-05-04 21:29:00,
2013-05-04 16:34:00,56.0,42.8,29.82,ESE,116,0.0,1.0,61,0.00,,---,0.74,VWS V14.01,2013-05-04 21:34:00,
2013-05-04 16:39:00,56.0,41.9,29.82,NE,50,0.0,2.0,59,0.00,,---,0.74,VWS V14.01,2013-05-04 21:39:00,
2013-05-04 16:44:00,55.9,41.8,29.82,ENE,77,0.0,2.0,59,0.00,,---,0.74,VWS V14.01,2013-05-04 21:44:00,
2013-05-04 16:49:00,55.8,42.1,29.82,SSE,160,0.0,2.0,60,0.00,,---,0.74,VWS V14.01,2013-05-04 21:49:00,
2013-05-04 16:54:00,55.9,42.2,29.82,SSE,159,1.0,2.0,60,0.00,,---,0.74,VWS V14.01,2013-05-04 21:54:00,
2013-05-04 16:59:00,55.6,41.5,29.82,West,273,0.0,3.0,59,0.00,,---,0.74,VWS V14.01,2013-05-04 21:59:00,
2013-05-04 17:04:00,55.2,41.1,29.82,NW,323,0.0,2.0,59,0.00,,---,0.74,VWS V14.01,2013-05-04 22:04:00,
2013-05-04 17:09:00,55.1,41.0,29.82,NNW,327,1.0,2.0,59,0.00,,---,0.74,VWS V14.01,2013-05-04 22:09:00,
2013-05-04 17:14:00,55.1,41.0,29.82,North,355,4.0,4.0,59,0.00,,---,0.74,VWS V14.01,2013-05-04 22:14:00,
2013-05-04 17:19:00,54.9,43.0,29.82,ENE,67,4.0,7.0,64,0.00,,---,0.74,VWS V14.01,2013-05-04 22:19:00,
2013-05-04 17:24:00,53.9,42.4,29.82,NNW,340,0.0,7.0,65,0.00,,---,0.74,VWS V14.01,2013-05-04 22:24:00,
2013-05-04 17:29:00,53.8,42.3,29.82,NNW,337,1.0,7.0,65,0.00,,---,0.74,VWS V14.01,2013-05-04 22:29:00,
2013-05-04 17:34:00,53.6,41.7,29.83,ENE,72,1.0,3.0,64,0.00,,---,0.74,VWS V14.01,2013-05-04 22:34:00,
2013-05-04 17:39:00,53.2,42.5,29.83,NE,50,3.0,5.0,67,0.00,,---,0.74,VWS V14.01,2013-05-04 22:39:00,
2013-05-04 17:44:00,52.4,43.3,29.83,ENE,64,1.0,10.0,71,0.00,,---,0.74,VWS V14.01,2013-05-04 22:44:00,
2013-05-04 17:49:00,51.9,43.2,29.83,East,99,4.0,11.0,72,0.00,,---,0.74,VWS V14.01,2013-05-04 22:49:00,
2013-05-04 17:54:00,51.6,42.9,29.83,East,91,3.0,11.0,72,0.00,,---,0.74,VWS V14.01,2013-05-04 22:54:00,
2013-05-04 17:59:00,51.3,43.0,29.83,East,94,6.0,11.0,73,0.00,,---,0.74,VWS V14.01,2013-05-04 22:59:00,
2013-05-04 18:04:00,51.0,42.7,29.83,NNW,338,2.0,7.0,73,0.00,,---,0.74,VWS V14.01,2013-05-04 23:04:00,
2013-05-04 18:09:00,50.7,42.0,29.83,NE,46,3.0,7.0,72,0.00,,---,0.74,VWS V14.01,2013-05-04 23:09:00,
2013-05-04 18:14:00,50.8,42.8,29.83,ENE,76,4.0,7.0,74,0.00,,---,0.74,VWS V14.01,2013-05-04 23:14:00,
2013-05-04 18:19:00,50.6,42.3,29.84,East,99,2.0,8.0,73,0.00,,---,0.74,VWS V14.01,2013-05-04 23:19:00,
2013-05-04 18:24:00,50.5,42.5,29.84,ENE,70,3.0,8.0,74,0.00,,---,0.74,VWS V14.01,2013-05-04 23:24:00,
2013-05-04 18:29:00,50.4,42.4,29.84,East,94,2.0,8.0,74,0.00,,---,0.74,VWS V14.01,2013-05-04 23:29:00,
2013-05-04 18:34:00,50.3,42.3,29.83,East,97,5.0,6.0,74,0.00,,---,0.74,VWS V14.01,2013-05-04 23:34:00,
2013-05-04 18:39:00,50.1,42.5,29.83,ENE,78,0.0,6.0,75,0.00,,---,0.74,VWS V14.01,2013-05-04 23:39:00,
2013-05-04 18:44:00,50.1,42.5,29.83,ESE,108,4.0,6.0,75,0.00,,---,0.74,VWS V14.01,2013-05-04 23:44:00,
2013-05-04 18:49:00,50.2,42.6,29.83,ENE,65,2.0,6.0,75,0.00,,---,0.74,VWS V14.01,2013-05-04 23:49:00,
2013-05-04 18:54:00,50.0,42.4,29.83,ENE,66,1.0,6.0,75,0.00,,---,0.74,VWS V14.01,2013-05-04 23:54:00,
2013-05-04 18:59:00,49.9,42.3,29.83,ENE,76,0.0,6.0,75,0.00,,---,0.74,VWS V14.01,2013-05-04 23:59:00,
2013-05-04 19:04:00,49.7,42.5,29.83,ENE,78,3.0,4.0,76,0.00,,---,0.74,VWS V14.01,2013-05-05 00:04:00,
2013-05-04 19:09:00,49.6,42.4,29.83,ENE,76,3.0,4.0,76,0.00,,---,0.74,VWS V14.01,2013-05-05 00:09:00,
2013-05-04 19:14:00,49.6,42.7,29.83,East,80,0.0,4.0,77,0.00,,---,0.74,VWS V14.01,2013-05-05 00:14:00,
2013-05-04 19:19:00,49.6,42.7,29.83,East,80,0.0,4.0,77,0.00,,---,0.74,VWS V14.01,2013-05-05 00:19:00,
2013-05-04 19:24:00,49.5,42.9,29.83,ENE,58,0.0,4.0,78,0.00,,---,0.74,VWS V14.01,2013-05-05 00:24:00,
2013-05-04 19:29:00,49.3,42.7,29.83,ESE,104,0.0,4.0,78,0.00,,---,0.74,VWS V14.01,2013-05-05 00:29:00,
2013-05-04 19:34:00,49.2,43.0,29.84,ENE,76,0.0,2.0,79,0.00,,---,0.74,VWS V14.01,2013-05-05 00:34:00,
2013-05-04 19:39:00,48.9,42.7,29.84,ENE,75,0.0,3.0,79,0.00,,---,0.74,VWS V14.01,2013-05-05 00:39:00,
2013-05-04 19:44:00,48.7,42.5,29.84,ENE,69,0.0,3.0,79,0.00,,---,0.74,VWS V14.01,2013-05-05 00:44:00,
2013-05-04 19:49:00,48.6,42.7,29.84,East,90,1.0,3.0,80,0.00,,---,0.74,VWS V14.01,2013-05-05 00:49:00,
2013-05-04 19:54:00,48.4,42.5,29.84,East,89,0.0,3.0,80,0.00,,---,0.74,VWS V14.01,2013-05-05 00:54:00,
2013-05-04 19:59:00,48.1,42.5,29.84,East,89,0.0,3.0,81,0.00,,---,0.74,VWS V14.01,2013-05-05 00:59:00,
2013-05-04 20:04:00,47.9,42.7,29.84,East,89,0.0,0.0,82,0.00,,---,0.74,VWS V14.01,2013-05-05 01:04:00,
2013-05-04 20:09:00,47.7,42.5,29.84,East,89,0.0,1.0,82,0.00,,---,0.74,VWS V14.01,2013-05-05 01:09:00,
2013-05-04 20:14:00,47.4,42.5,29.84,East,89,0.0,1.0,83,0.00,,---,0.74,VWS V14.01,2013-05-05 01:14:00,
2013-05-04 20:19:00,47.1,42.2,29.85,East,89,0.0,1.0,83,0.00,,---,0.74,VWS V14.01,2013-05-05 01:19:00,
2013-05-04 20:24:00,46.9,42.0,29.85,East,89,0.0,1.0,83,0.00,,---,0.74,VWS V14.01,2013-05-05 01:24:00,
2013-05-04 20:29:00,46.7,42.1,29.85,East,89,0.0,1.0,84,0.00,,---,0.74,VWS V14.01,2013-05-05 01:29:00,
2013-05-04 20:34:00,46.5,41.9,29.85,East,89,0.0,0.0,84,0.00,,---,0.74,VWS V14.01,2013-05-05 01:34:00,
2013-05-04 20:39:00,46.3,41.7,29.85,East,89,0.0,0.0,84,0.00,,---,0.74,VWS V14.01,2013-05-05 01:39:00,
2013-05-04 20:44:00,46.2,42.0,29.85,East,89,0.0,0.0,85,0.00,,---,0.74,VWS V14.01,2013-05-05 01:44:00,
2013-05-04 20:49:00,46.0,41.8,29.85,East,89,0.0,0.0,85,0.00,,---,0.74,VWS V14.01,2013-05-05 01:49:00,
2013-05-04 20:54:00,45.8,41.9,29.85,East,89,0.0,0.0,86,0.00,,---,0.74,VWS V14.01,2013-05-05 01:54:00,
2013-05-04 20:59:00,45.4,41.5,29.85,East,89,0.0,0.0,86,0.00,,---,0.74,VWS V14.01,2013-05-05 01:59:00,
2013-05-04 21:04:00,45.2,41.6,29.86,East,89,0.0,0.0,87,0.00,,---,0.74,VWS V14.01,2013-05-05 02:04:00,
2013-05-04 21:09:00,45.0,41.4,29.86,East,89,0.0,0.0,87,0.00,,---,0.74,VWS V14.01,2013-05-05 02:09:00,
2013-05-04 21:14:00,44.8,41.2,29.86,East,89,0.0,0.0,87,0.00,,---,0.74,VWS V14.01,2013-05-05 02:14:00,
2013-05-04 21:19:00,44.6,41.3,29.86,East,89,0.0,0.0,88,0.00,,---,0.74,VWS V14.01,2013-05-05 02:19:00,
2013-05-04 21:24:00,44.4,41.1,29.86,East,89,0.0,0.0,88,0.00,,---,0.74,VWS V14.01,2013-05-05 02:24:00,
2013-05-04 21:29:00,44.2,41.2,29.86,East,89,0.0,0.0,89,0.00,,---,0.74,VWS V14.01,2013-05-05 02:29:00,
2013-05-04 21:34:00,44.0,41.0,29.85,East,89,0.0,0.0,89,0.00,,---,0.74,VWS V14.01,2013-05-05 02:34:00,
2013-05-04 21:39:00,43.9,40.9,29.85,East,89,0.0,0.0,89,0.00,,---,0.74,VWS V14.01,2013-05-05 02:39:00,
2013-05-04 21:44:00,43.8,40.8,29.85,East,89,0.0,0.0,89,0.00,,---,0.74,VWS V14.01,2013-05-05 02:44:00,
2013-05-04 21:49:00,43.7,40.7,29.84,East,89,0.0,0.0,89,0.00,,---,0.74,VWS V14.01,2013-05-05 02:49:00,
2013-05-04 21:54:00,43.7,41.0,29.84,East,89,0.0,0.0,90,0.00,,---,0.74,VWS V14.01,2013-05-05 02:54:00,
2013-05-04 21:59:00,43.8,41.1,29.84,East,89,0.0,0.0,90,0.00,,---,0.74,VWS V14.01,2013-05-05 02:59:00,
2013-05-04 22:04:00,43.9,41.5,29.84,East,89,0.0,0.0,91,0.00,,---,0.74,VWS V14.01,2013-05-05 03:04:00,
2013-05-04 22:09:00,43.9,41.5,29.84,East,89,0.0,0.0,91,0.00,,---,0.74,VWS V14.01,2013-05-05 03:09:00,
2013-05-04 22:14:00,44.0,41.5,29.84,East,89,0.0,0.0,91,0.00,,---,0.74,VWS V14.01,2013-05-05 03:14:00,
2013-05-04 22:19:00,43.9,41.5,29.84,East,90,0.0,0.0,91,0.00,,---,0.74,VWS V14.01,2013-05-05 03:19:00,
2013-05-04 22:24:00,43.9,41.5,29.84,East,89,0.0,0.0,91,0.00,,---,0.74,VWS V14.01,2013-05-05 03:24:00,
2013-05-04 22:29:00,43.9,41.5,29.84,East,89,0.0,0.0,91,0.00,,---,0.74,VWS V14.01,2013-05-05 03:29:00,
2013-05-04 22:34:00,43.9,41.5,29.84,East,89,0.0,0.0,91,0.00,,---,0.74,VWS V14.01,2013-05-05 03:34:00,
2013-05-04 22:39:00,44.0,41.8,29.84,East,89,0.0,1.0,92,0.00,,---,0.74,VWS V14.01,2013-05-05 03:39:00,
2013-05-04 22:44:00,44.1,41.9,29.84,East,89,0.0,1.0,92,0.00,,---,0.74,VWS V14.01,2013-05-05 03:44:00,
2013-05-04 22:49:00,44.1,41.9,29.83,East,89,0.0,1.0,92,0.00,,---,0.74,VWS V14.01,2013-05-05 03:49:00,
2013-05-04 22:54:00,44.1,41.9,29.83,East,89,0.0,1.0,92,0.00,,---,0.74,VWS V14.01,2013-05-05 03:54:00,
2013-05-04 22:59:00,44.1,41.9,29.83,East,89,0.0,1.0,92,0.00,,---,0.74,VWS V14.01,2013-05-05 03:59:00,
2013-05-04 23:01:00,44.1,41.9,29.83,East,89,0.0,1.0,92,0.00,,---,0.74,VWS V14.01,2013-05-05 04:01:00,
2013-05-04 23:06:00,44.0,41.8,29.82,East,90,0.0,0.0,92,0.00,,---,0.74,VWS V14.01,2013-05-05 04:06:00,
2013-05-04 23:11:00,43.9,41.7,29.82,East,89,0.0,0.0,92,0.00,,---,0.74,VWS V14.01,2013-05-05 04:11:00,
2013-05-04 23:16:00,43.9,41.7,29.83,East,89,0.0,0.0,92,0.00,,---,0.74,VWS V14.01,2013-05-05 04:16:00,
2013-05-04 23:21:00,44.0,41.8,29.83,East,89,0.0,0.0,92,0.00,,---,0.74,VWS V14.01,2013-05-05 04:21:00,
2013-05-04 23:26:00,44.0,41.8,29.83,East,89,0.0,0.0,92,0.00,,---,0.74,VWS V14.01,2013-05-05 04:26:00,
2013-05-04 23:31:00,44.0,41.8,29.83,East,89,0.0,1.0,92,0.00,,---,0.74,VWS V14.01,2013-05-05 04:31:00,
2013-05-04 23:36:00,44.2,42.3,29.83,East,89,0.0,2.0,93,0.00,,---,0.74,VWS V14.01,2013-05-05 04:36:00,
2013-05-04 23:41:00,44.3,42.4,29.83,East,89,0.0,2.0,93,0.00,,---,0.74,VWS V14.01,2013-05-05 04:41:00,
2013-05-04 23:46:00,44.4,42.5,29.83,East,89,0.0,2.0,93,0.00,,---,0.74,VWS V14.01,2013-05-05 04:46:00,
2013-05-04 23:51:00,44.6,42.7,29.83,East,89,0.0,2.0,93,0.00,,---,0.74,VWS V14.01,2013-05-05 04:51:00,
2013-05-04 23:56:00,44.7,42.8,29.83,East,89,0.0,2.0,93,0.00,,---,0.74,VWS V14.01,2013-05-05 04:56:00,